sensor_id;sensor_type;location;lat;lon;timestamp;P1;durP1;ratioP1;P2;durP2;ratioP2
40074;SDS011;26529;51.530;11.754;2023-05-10T00:01:42;2.65;;;1.70;;
40074;SDS011;26529;51.530;11.754;2023-05-10T00:04:07;3.28;;;1.42;;
40074;SDS011;26529;51.530;11.754;2023-05-10T00:06:33;3.28;;;1.50;;
40074;SDS011;26529;51.530;11.754;2023-05-10T00:08:58;3.38;;;1.70;;
40074;SDS011;26529;51.530;11.754;2023-05-10T00:11:23;5.28;;;1.85;;
40074;SDS011;26529;51.530;11.754;2023-05-10T00:13:49;4.50;;;1.67;;
40074;SDS011;26529;51.530;11.754;2023-05-10T00:16:14;3.58;;;2.10;;
40074;SDS011;26529;51.530;11.754;2023-05-10T00:18:40;4.35;;;1.63;;
40074;SDS011;26529;51.530;11.754;2023-05-10T00:21:06;5.53;;;2.00;;
40074;SDS011;26529;51.530;11.754;2023-05-10T00:23:31;4.35;;;2.05;;
40074;SDS011;26529;51.530;11.754;2023-05-10T00:25:57;2.97;;;1.60;;
40074;SDS011;26529;51.530;11.754;2023-05-10T00:28:22;2.55;;;1.98;;
40074;SDS011;26529;51.530;11.754;2023-05-10T00:30:48;3.22;;;1.70;;
40074;SDS011;26529;51.530;11.754;2023-05-10T00:33:13;3.25;;;1.90;;
40074;SDS011;26529;51.530;11.754;2023-05-10T00:35:39;2.55;;;1.63;;
40074;SDS011;26529;51.530;11.754;2023-05-10T00:38:05;3.13;;;1.60;;
40074;SDS011;26529;51.530;11.754;2023-05-10T00:40:30;3.85;;;1.58;;
40074;SDS011;26529;51.530;11.754;2023-05-10T00:43:00;4.22;;;1.73;;
40074;SDS011;26529;51.530;11.754;2023-05-10T00:45:26;2.00;;;1.80;;
40074;SDS011;26529;51.530;11.754;2023-05-10T00:47:52;3.13;;;1.85;;
40074;SDS011;26529;51.530;11.754;2023-05-10T00:50:20;2.72;;;2.15;;
40074;SDS011;26529;51.530;11.754;2023-05-10T00:52:47;3.03;;;1.83;;
40074;SDS011;26529;51.530;11.754;2023-05-10T00:55:13;5.47;;;1.80;;
40074;SDS011;26529;51.530;11.754;2023-05-10T00:57:38;4.45;;;1.77;;
40074;SDS011;26529;51.530;11.754;2023-05-10T01:00:05;5.32;;;1.95;;
40074;SDS011;26529;51.530;11.754;2023-05-10T01:02:31;4.50;;;1.73;;
40074;SDS011;26529;51.530;11.754;2023-05-10T01:04:56;3.88;;;1.70;;
40074;SDS011;26529;51.530;11.754;2023-05-10T01:07:22;3.28;;;2.08;;
40074;SDS011;26529;51.530;11.754;2023-05-10T01:09:48;2.88;;;1.92;;
40074;SDS011;26529;51.530;11.754;2023-05-10T01:12:14;4.20;;;2.00;;
40074;SDS011;26529;51.530;11.754;2023-05-10T01:14:40;3.95;;;2.05;;
40074;SDS011;26529;51.530;11.754;2023-05-10T01:17:06;4.00;;;1.70;;
40074;SDS011;26529;51.530;11.754;2023-05-10T01:19:33;2.58;;;1.88;;
40074;SDS011;26529;51.530;11.754;2023-05-10T01:41:23;2.70;;;2.13;;
40074;SDS011;26529;51.530;11.754;2023-05-10T01:43:57;7.30;;;1.85;;
40074;SDS011;26529;51.530;11.754;2023-05-10T01:46:35;5.63;;;2.03;;
40074;SDS011;26529;51.530;11.754;2023-05-10T01:49:02;3.13;;;2.00;;
40074;SDS011;26529;51.530;11.754;2023-05-10T01:51:41;3.40;;;1.90;;
40074;SDS011;26529;51.530;11.754;2023-05-10T01:54:12;4.80;;;2.15;;
40074;SDS011;26529;51.530;11.754;2023-05-10T01:56:39;5.03;;;1.83;;
40074;SDS011;26529;51.530;11.754;2023-05-10T01:59:06;4.10;;;2.10;;
40074;SDS011;26529;51.530;11.754;2023-05-10T02:01:36;3.65;;;1.98;;
40074;SDS011;26529;51.530;11.754;2023-05-10T02:04:03;2.50;;;1.60;;
40074;SDS011;26529;51.530;11.754;2023-05-10T02:06:31;3.40;;;2.15;;
40074;SDS011;26529;51.530;11.754;2023-05-10T02:08:58;3.65;;;1.85;;
40074;SDS011;26529;51.530;11.754;2023-05-10T02:11:26;3.00;;;2.08;;
40074;SDS011;26529;51.530;11.754;2023-05-10T02:13:53;5.72;;;1.98;;
40074;SDS011;26529;51.530;11.754;2023-05-10T02:16:26;5.85;;;1.98;;
40074;SDS011;26529;51.530;11.754;2023-05-10T02:18:55;3.97;;;1.85;;
40074;SDS011;26529;51.530;11.754;2023-05-10T02:21:24;4.65;;;2.38;;
40074;SDS011;26529;51.530;11.754;2023-05-10T02:23:52;4.13;;;2.25;;
40074;SDS011;26529;51.530;11.754;2023-05-10T02:26:20;4.70;;;2.20;;
40074;SDS011;26529;51.530;11.754;2023-05-10T02:28:48;3.40;;;2.10;;
40074;SDS011;26529;51.530;11.754;2023-05-10T02:31:14;2.20;;;1.80;;
40074;SDS011;26529;51.530;11.754;2023-05-10T02:33:40;3.67;;;2.03;;
40074;SDS011;26529;51.530;11.754;2023-05-10T02:36:08;4.95;;;2.22;;
40074;SDS011;26529;51.530;11.754;2023-05-10T02:38:35;3.92;;;2.50;;
40074;SDS011;26529;51.530;11.754;2023-05-10T02:41:01;5.00;;;2.28;;
40074;SDS011;26529;51.530;11.754;2023-05-10T02:43:30;2.70;;;1.75;;
40074;SDS011;26529;51.530;11.754;2023-05-10T02:45:58;4.85;;;2.40;;
40074;SDS011;26529;51.530;11.754;2023-05-10T02:48:24;3.40;;;2.10;;
40074;SDS011;26529;51.530;11.754;2023-05-10T02:50:50;7.28;;;2.65;;
40074;SDS011;26529;51.530;11.754;2023-05-10T02:53:30;4.55;;;2.53;;
40074;SDS011;26529;51.530;11.754;2023-05-10T02:55:59;7.28;;;2.78;;
40074;SDS011;26529;51.530;11.754;2023-05-10T02:58:29;5.63;;;2.15;;
40074;SDS011;26529;51.530;11.754;2023-05-10T03:00:55;3.70;;;2.05;;
40074;SDS011;26529;51.530;11.754;2023-05-10T03:03:23;11.57;;;2.60;;
40074;SDS011;26529;51.530;11.754;2023-05-10T03:05:50;3.40;;;2.25;;
40074;SDS011;26529;51.530;11.754;2023-05-10T03:08:15;10.35;;;3.35;;
40074;SDS011;26529;51.530;11.754;2023-05-10T03:10:43;3.42;;;2.28;;
40074;SDS011;26529;51.530;11.754;2023-05-10T03:13:32;4.75;;;2.38;;
40074;SDS011;26529;51.530;11.754;2023-05-10T03:16:25;6.32;;;2.50;;
40074;SDS011;26529;51.530;11.754;2023-05-10T03:18:55;3.45;;;2.28;;
40074;SDS011;26529;51.530;11.754;2023-05-10T03:21:28;4.65;;;2.85;;
40074;SDS011;26529;51.530;11.754;2023-05-10T03:24:04;3.53;;;2.25;;
40074;SDS011;26529;51.530;11.754;2023-05-10T03:26:34;4.43;;;2.58;;
40074;SDS011;26529;51.530;11.754;2023-05-10T03:29:07;3.10;;;2.38;;
40074;SDS011;26529;51.530;11.754;2023-05-10T03:31:33;3.78;;;2.47;;
40074;SDS011;26529;51.530;11.754;2023-05-10T03:33:59;3.95;;;2.22;;
40074;SDS011;26529;51.530;11.754;2023-05-10T03:36:26;3.72;;;2.60;;
40074;SDS011;26529;51.530;11.754;2023-05-10T03:38:51;4.10;;;2.65;;
40074;SDS011;26529;51.530;11.754;2023-05-10T03:41:17;4.00;;;2.53;;
40074;SDS011;26529;51.530;11.754;2023-05-10T03:43:43;4.90;;;2.72;;
40074;SDS011;26529;51.530;11.754;2023-05-10T03:46:08;3.47;;;2.33;;
40074;SDS011;26529;51.530;11.754;2023-05-10T03:48:34;4.20;;;2.78;;
40074;SDS011;26529;51.530;11.754;2023-05-10T03:50:59;3.92;;;2.63;;
40074;SDS011;26529;51.530;11.754;2023-05-10T03:53:25;3.92;;;2.47;;
40074;SDS011;26529;51.530;11.754;2023-05-10T03:55:52;5.15;;;2.33;;
40074;SDS011;26529;51.530;11.754;2023-05-10T03:58:17;4.80;;;2.90;;
40074;SDS011;26529;51.530;11.754;2023-05-10T04:00:43;5.47;;;2.88;;
40074;SDS011;26529;51.530;11.754;2023-05-10T04:03:12;4.38;;;3.05;;
40074;SDS011;26529;51.530;11.754;2023-05-10T04:05:38;4.95;;;2.85;;
40074;SDS011;26529;51.530;11.754;2023-05-10T04:08:03;3.75;;;2.72;;
40074;SDS011;26529;51.530;11.754;2023-05-10T04:10:30;4.97;;;2.30;;
40074;SDS011;26529;51.530;11.754;2023-05-10T04:12:55;4.00;;;2.70;;
40074;SDS011;26529;51.530;11.754;2023-05-10T04:15:21;5.13;;;2.70;;
40074;SDS011;26529;51.530;11.754;2023-05-10T04:17:46;4.65;;;3.13;;
40074;SDS011;26529;51.530;11.754;2023-05-10T04:20:12;5.68;;;2.85;;
40074;SDS011;26529;51.530;11.754;2023-05-10T04:22:38;5.72;;;2.65;;
40074;SDS011;26529;51.530;11.754;2023-05-10T04:25:04;4.38;;;2.42;;
40074;SDS011;26529;51.530;11.754;2023-05-10T04:27:30;4.70;;;3.10;;
40074;SDS011;26529;51.530;11.754;2023-05-10T04:29:56;3.95;;;2.55;;
40074;SDS011;26529;51.530;11.754;2023-05-10T04:32:22;3.60;;;2.70;;
40074;SDS011;26529;51.530;11.754;2023-05-10T04:34:47;4.18;;;2.78;;
40074;SDS011;26529;51.530;11.754;2023-05-10T04:37:13;5.10;;;2.85;;
40074;SDS011;26529;51.530;11.754;2023-05-10T04:39:39;6.00;;;2.22;;
40074;SDS011;26529;51.530;11.754;2023-05-10T04:42:04;5.97;;;3.00;;
40074;SDS011;26529;51.530;11.754;2023-05-10T04:44:31;4.50;;;2.67;;
40074;SDS011;26529;51.530;11.754;2023-05-10T04:46:57;5.57;;;2.65;;
40074;SDS011;26529;51.530;11.754;2023-05-10T04:49:22;5.32;;;2.53;;
40074;SDS011;26529;51.530;11.754;2023-05-10T04:51:48;3.90;;;2.22;;
40074;SDS011;26529;51.530;11.754;2023-05-10T04:54:13;4.63;;;2.78;;
40074;SDS011;26529;51.530;11.754;2023-05-10T04:56:39;3.75;;;2.70;;
40074;SDS011;26529;51.530;11.754;2023-05-10T04:59:06;3.97;;;2.67;;
40074;SDS011;26529;51.530;11.754;2023-05-10T05:01:32;3.72;;;2.42;;
40074;SDS011;26529;51.530;11.754;2023-05-10T05:03:57;2.78;;;2.20;;
40074;SDS011;26529;51.530;11.754;2023-05-10T05:06:23;3.78;;;2.40;;
40074;SDS011;26529;51.530;11.754;2023-05-10T05:08:50;6.43;;;3.50;;
40074;SDS011;26529;51.530;11.754;2023-05-10T05:11:16;6.00;;;2.50;;
40074;SDS011;26529;51.530;11.754;2023-05-10T05:13:42;3.50;;;2.70;;
40074;SDS011;26529;51.530;11.754;2023-05-10T05:16:08;3.30;;;2.40;;
40074;SDS011;26529;51.530;11.754;2023-05-10T05:18:33;4.63;;;2.92;;
40074;SDS011;26529;51.530;11.754;2023-05-10T05:20:59;5.18;;;2.88;;
40074;SDS011;26529;51.530;11.754;2023-05-10T05:23:25;5.63;;;3.40;;
40074;SDS011;26529;51.530;11.754;2023-05-10T05:25:51;4.30;;;2.67;;
40074;SDS011;26529;51.530;11.754;2023-05-10T05:28:18;4.38;;;3.10;;
40074;SDS011;26529;51.530;11.754;2023-05-10T05:30:46;10.10;;;3.70;;
40074;SDS011;26529;51.530;11.754;2023-05-10T05:33:15;7.55;;;4.53;;
40074;SDS011;26529;51.530;11.754;2023-05-10T05:35:40;7.20;;;4.47;;
40074;SDS011;26529;51.530;11.754;2023-05-10T05:38:08;7.18;;;4.25;;
40074;SDS011;26529;51.530;11.754;2023-05-10T05:40:33;9.27;;;4.55;;
40074;SDS011;26529;51.530;11.754;2023-05-10T05:42:59;10.52;;;5.57;;
40074;SDS011;26529;51.530;11.754;2023-05-10T05:45:25;9.60;;;4.90;;
40074;SDS011;26529;51.530;11.754;2023-05-10T05:47:50;10.68;;;5.38;;
40074;SDS011;26529;51.530;11.754;2023-05-10T05:50:15;11.63;;;5.70;;
40074;SDS011;26529;51.530;11.754;2023-05-10T05:52:41;9.68;;;5.68;;
40074;SDS011;26529;51.530;11.754;2023-05-10T05:55:07;10.27;;;5.63;;
40074;SDS011;26529;51.530;11.754;2023-05-10T05:57:32;10.65;;;6.20;;
40074;SDS011;26529;51.530;11.754;2023-05-10T05:59:58;11.98;;;6.65;;
40074;SDS011;26529;51.530;11.754;2023-05-10T06:02:24;11.15;;;6.63;;
40074;SDS011;26529;51.530;11.754;2023-05-10T06:04:50;10.00;;;6.18;;
40074;SDS011;26529;51.530;11.754;2023-05-10T06:07:15;11.75;;;7.28;;
40074;SDS011;26529;51.530;11.754;2023-05-10T06:09:41;12.00;;;7.13;;
40074;SDS011;26529;51.530;11.754;2023-05-10T06:12:07;14.40;;;8.00;;
40074;SDS011;26529;51.530;11.754;2023-05-10T06:14:32;15.07;;;7.65;;
40074;SDS011;26529;51.530;11.754;2023-05-10T06:16:58;11.95;;;8.05;;
40074;SDS011;26529;51.530;11.754;2023-05-10T06:19:24;11.70;;;7.75;;
40074;SDS011;26529;51.530;11.754;2023-05-10T06:21:51;12.23;;;7.40;;
40074;SDS011;26529;51.530;11.754;2023-05-10T06:24:17;10.18;;;7.13;;
40074;SDS011;26529;51.530;11.754;2023-05-10T06:26:42;14.13;;;6.97;;
40074;SDS011;26529;51.530;11.754;2023-05-10T06:29:08;12.15;;;6.78;;
40074;SDS011;26529;51.530;11.754;2023-05-10T06:31:33;10.73;;;6.85;;
40074;SDS011;26529;51.530;11.754;2023-05-10T06:33:59;16.00;;;7.10;;
40074;SDS011;26529;51.530;11.754;2023-05-10T06:36:24;11.18;;;7.10;;
40074;SDS011;26529;51.530;11.754;2023-05-10T06:38:51;16.80;;;7.97;;
40074;SDS011;26529;51.530;11.754;2023-05-10T06:41:17;13.88;;;6.97;;
40074;SDS011;26529;51.530;11.754;2023-05-10T06:43:42;11.95;;;7.57;;
40074;SDS011;26529;51.530;11.754;2023-05-10T06:46:08;13.50;;;7.25;;
40074;SDS011;26529;51.530;11.754;2023-05-10T06:48:33;19.05;;;6.72;;
40074;SDS011;26529;51.530;11.754;2023-05-10T06:50:59;11.73;;;6.70;;
40074;SDS011;26529;51.530;11.754;2023-05-10T06:53:25;14.23;;;7.38;;
40074;SDS011;26529;51.530;11.754;2023-05-10T06:55:50;12.98;;;6.95;;
40074;SDS011;26529;51.530;11.754;2023-05-10T06:58:16;12.70;;;6.78;;
40074;SDS011;26529;51.530;11.754;2023-05-10T07:00:43;14.48;;;7.22;;
40074;SDS011;26529;51.530;11.754;2023-05-10T07:03:10;12.38;;;6.78;;
40074;SDS011;26529;51.530;11.754;2023-05-10T07:05:36;12.35;;;7.32;;
40074;SDS011;26529;51.530;11.754;2023-05-10T07:08:01;16.98;;;7.15;;
40074;SDS011;26529;51.530;11.754;2023-05-10T07:10:27;14.57;;;7.00;;
40074;SDS011;26529;51.530;11.754;2023-05-10T07:12:54;12.18;;;6.93;;
40074;SDS011;26529;51.530;11.754;2023-05-10T07:15:19;12.00;;;6.13;;
40074;SDS011;26529;51.530;11.754;2023-05-10T07:17:45;11.88;;;6.95;;
40074;SDS011;26529;51.530;11.754;2023-05-10T07:20:11;11.55;;;6.50;;
40074;SDS011;26529;51.530;11.754;2023-05-10T07:22:37;12.80;;;6.00;;
40074;SDS011;26529;51.530;11.754;2023-05-10T07:25:02;15.80;;;6.38;;
40074;SDS011;26529;51.530;11.754;2023-05-10T07:27:29;15.20;;;6.80;;
40074;SDS011;26529;51.530;11.754;2023-05-10T07:29:54;10.38;;;6.28;;
40074;SDS011;26529;51.530;11.754;2023-05-10T07:32:21;9.25;;;5.72;;
40074;SDS011;26529;51.530;11.754;2023-05-10T07:34:47;9.77;;;5.88;;
40074;SDS011;26529;51.530;11.754;2023-05-10T07:37:12;8.77;;;5.13;;
40074;SDS011;26529;51.530;11.754;2023-05-10T07:39:38;12.60;;;6.30;;
40074;SDS011;26529;51.530;11.754;2023-05-10T07:42:03;12.90;;;6.40;;
40074;SDS011;26529;51.530;11.754;2023-05-10T07:44:29;16.02;;;6.53;;
40074;SDS011;26529;51.530;11.754;2023-05-10T07:46:54;11.93;;;6.38;;
40074;SDS011;26529;51.530;11.754;2023-05-10T07:49:20;18.90;;;6.47;;
40074;SDS011;26529;51.530;11.754;2023-05-10T07:51:46;15.93;;;6.47;;
40074;SDS011;26529;51.530;11.754;2023-05-10T07:54:12;12.50;;;6.38;;
40074;SDS011;26529;51.530;11.754;2023-05-10T07:56:37;14.63;;;6.13;;
40074;SDS011;26529;51.530;11.754;2023-05-10T07:59:04;9.90;;;6.07;;
40074;SDS011;26529;51.530;11.754;2023-05-10T08:01:32;13.45;;;7.30;;
40074;SDS011;26529;51.530;11.754;2023-05-10T08:03:58;9.65;;;5.85;;
40074;SDS011;26529;51.530;11.754;2023-05-10T08:06:25;12.07;;;5.88;;
40074;SDS011;26529;51.530;11.754;2023-05-10T08:08:53;9.95;;;6.03;;
40074;SDS011;26529;51.530;11.754;2023-05-10T08:11:19;14.13;;;6.78;;
40074;SDS011;26529;51.530;11.754;2023-05-10T08:13:48;9.15;;;5.32;;
40074;SDS011;26529;51.530;11.754;2023-05-10T08:16:15;10.55;;;5.88;;
40074;SDS011;26529;51.530;11.754;2023-05-10T08:18:43;11.40;;;5.65;;
40074;SDS011;26529;51.530;11.754;2023-05-10T08:21:10;12.68;;;5.88;;
40074;SDS011;26529;51.530;11.754;2023-05-10T08:23:36;13.07;;;6.25;;
40074;SDS011;26529;51.530;11.754;2023-05-10T08:26:02;11.90;;;6.40;;
40074;SDS011;26529;51.530;11.754;2023-05-10T08:28:27;11.73;;;6.18;;
40074;SDS011;26529;51.530;11.754;2023-05-10T08:30:53;11.50;;;6.00;;
40074;SDS011;26529;51.530;11.754;2023-05-10T08:33:19;7.78;;;5.80;;
40074;SDS011;26529;51.530;11.754;2023-05-10T08:35:45;10.25;;;5.95;;
40074;SDS011;26529;51.530;11.754;2023-05-10T08:38:10;13.18;;;5.70;;
40074;SDS011;26529;51.530;11.754;2023-05-10T08:40:40;11.02;;;5.65;;
40074;SDS011;26529;51.530;11.754;2023-05-10T08:43:08;13.95;;;6.15;;
40074;SDS011;26529;51.530;11.754;2023-05-10T08:45:39;18.00;;;5.90;;
40074;SDS011;26529;51.530;11.754;2023-05-10T08:48:06;8.52;;;5.40;;
40074;SDS011;26529;51.530;11.754;2023-05-10T08:50:39;10.88;;;6.07;;
40074;SDS011;26529;51.530;11.754;2023-05-10T08:53:08;10.30;;;6.03;;
40074;SDS011;26529;51.530;11.754;2023-05-10T08:55:36;8.05;;;5.70;;
40074;SDS011;26529;51.530;11.754;2023-05-10T08:58:04;12.45;;;6.88;;
40074;SDS011;26529;51.530;11.754;2023-05-10T09:00:30;12.18;;;6.13;;
40074;SDS011;26529;51.530;11.754;2023-05-10T09:02:56;8.60;;;5.45;;
40074;SDS011;26529;51.530;11.754;2023-05-10T09:05:23;11.90;;;6.18;;
40074;SDS011;26529;51.530;11.754;2023-05-10T09:07:48;10.30;;;5.95;;
40074;SDS011;26529;51.530;11.754;2023-05-10T09:10:14;6.20;;;4.75;;
40074;SDS011;26529;51.530;11.754;2023-05-10T09:12:40;8.65;;;5.43;;
40074;SDS011;26529;51.530;11.754;2023-05-10T09:15:06;10.68;;;5.22;;
40074;SDS011;26529;51.530;11.754;2023-05-10T09:17:34;10.48;;;4.93;;
40074;SDS011;26529;51.530;11.754;2023-05-10T09:20:00;10.55;;;5.28;;
40074;SDS011;26529;51.530;11.754;2023-05-10T09:22:28;7.88;;;5.22;;
40074;SDS011;26529;51.530;11.754;2023-05-10T09:27:44;7.95;;;4.78;;
40074;SDS011;26529;51.530;11.754;2023-05-10T09:30:10;9.48;;;5.35;;
40074;SDS011;26529;51.530;11.754;2023-05-10T09:32:42;10.60;;;5.10;;
40074;SDS011;26529;51.530;11.754;2023-05-10T09:35:09;7.72;;;5.20;;
40074;SDS011;26529;51.530;11.754;2023-05-10T09:37:36;9.70;;;5.07;;
40074;SDS011;26529;51.530;11.754;2023-05-10T09:40:04;8.82;;;5.28;;
40074;SDS011;26529;51.530;11.754;2023-05-10T09:42:30;7.72;;;4.60;;
40074;SDS011;26529;51.530;11.754;2023-05-10T09:44:59;9.82;;;5.35;;
40074;SDS011;26529;51.530;11.754;2023-05-10T09:47:29;11.52;;;5.15;;
40074;SDS011;26529;51.530;11.754;2023-05-10T09:49:57;11.02;;;5.03;;
40074;SDS011;26529;51.530;11.754;2023-05-10T09:52:28;13.48;;;5.43;;
40074;SDS011;26529;51.530;11.754;2023-05-10T09:54:53;7.47;;;4.75;;
40074;SDS011;26529;51.530;11.754;2023-05-10T09:57:23;11.23;;;4.53;;
40074;SDS011;26529;51.530;11.754;2023-05-10T09:59:50;9.10;;;4.60;;
40074;SDS011;26529;51.530;11.754;2023-05-10T10:02:16;9.70;;;5.68;;
40074;SDS011;26529;51.530;11.754;2023-05-10T10:04:42;11.07;;;4.97;;
40074;SDS011;26529;51.530;11.754;2023-05-10T10:07:07;9.05;;;4.88;;
40074;SDS011;26529;51.530;11.754;2023-05-10T10:09:33;10.32;;;4.82;;
40074;SDS011;26529;51.530;11.754;2023-05-10T10:12:00;13.90;;;5.25;;
40074;SDS011;26529;51.530;11.754;2023-05-10T10:14:29;10.80;;;5.13;;
40074;SDS011;26529;51.530;11.754;2023-05-10T10:16:55;8.27;;;5.00;;
40074;SDS011;26529;51.530;11.754;2023-05-10T10:19:21;6.75;;;4.68;;
40074;SDS011;26529;51.530;11.754;2023-05-10T10:21:47;9.20;;;4.72;;
40074;SDS011;26529;51.530;11.754;2023-05-10T10:24:14;12.65;;;5.82;;
40074;SDS011;26529;51.530;11.754;2023-05-10T10:26:40;9.15;;;5.38;;
40074;SDS011;26529;51.530;11.754;2023-05-10T10:34:30;8.25;;;4.70;;
40074;SDS011;26529;51.530;11.754;2023-05-10T10:36:57;9.23;;;4.75;;
40074;SDS011;26529;51.530;11.754;2023-05-10T10:39:28;6.18;;;4.47;;
40074;SDS011;26529;51.530;11.754;2023-05-10T10:41:55;6.45;;;4.63;;
40074;SDS011;26529;51.530;11.754;2023-05-10T10:44:23;9.23;;;5.00;;
40074;SDS011;26529;51.530;11.754;2023-05-10T10:47:07;10.55;;;4.97;;
40074;SDS011;26529;51.530;11.754;2023-05-10T10:49:50;7.43;;;4.47;;
40074;SDS011;26529;51.530;11.754;2023-05-10T10:52:26;6.75;;;4.20;;
40074;SDS011;26529;51.530;11.754;2023-05-10T10:55:03;7.70;;;4.65;;
40074;SDS011;26529;51.530;11.754;2023-05-10T10:57:42;9.85;;;4.72;;
40074;SDS011;26529;51.530;11.754;2023-05-10T11:00:17;7.07;;;4.47;;
40074;SDS011;26529;51.530;11.754;2023-05-10T11:02:46;8.88;;;5.00;;
40074;SDS011;26529;51.530;11.754;2023-05-10T11:07:55;11.18;;;4.80;;
40074;SDS011;26529;51.530;11.754;2023-05-10T11:10:22;9.40;;;4.72;;
40074;SDS011;26529;51.530;11.754;2023-05-10T11:13:01;7.15;;;4.35;;
40074;SDS011;26529;51.530;11.754;2023-05-10T11:15:29;8.70;;;4.28;;
40074;SDS011;26529;51.530;11.754;2023-05-10T11:17:56;9.70;;;5.10;;
40074;SDS011;26529;51.530;11.754;2023-05-10T11:20:21;9.32;;;3.83;;
40074;SDS011;26529;51.530;11.754;2023-05-10T11:22:50;7.85;;;4.03;;
40074;SDS011;26529;51.530;11.754;2023-05-10T11:25:17;6.85;;;4.47;;
40074;SDS011;26529;51.530;11.754;2023-05-10T11:27:42;8.60;;;4.13;;
40074;SDS011;26529;51.530;11.754;2023-05-10T11:30:09;10.15;;;4.53;;
40074;SDS011;26529;51.530;11.754;2023-05-10T11:32:39;10.70;;;4.45;;
40074;SDS011;26529;51.530;11.754;2023-05-10T11:35:08;10.82;;;4.55;;
40074;SDS011;26529;51.530;11.754;2023-05-10T11:37:34;8.52;;;4.22;;
40074;SDS011;26529;51.530;11.754;2023-05-10T11:40:00;7.63;;;3.97;;
40074;SDS011;26529;51.530;11.754;2023-05-10T11:42:27;12.18;;;4.05;;
40074;SDS011;26529;51.530;11.754;2023-05-10T11:44:53;5.97;;;3.95;;
40074;SDS011;26529;51.530;11.754;2023-05-10T11:47:19;5.15;;;3.95;;
40074;SDS011;26529;51.530;11.754;2023-05-10T11:49:45;5.93;;;4.28;;
40074;SDS011;26529;51.530;11.754;2023-05-10T11:52:11;9.85;;;4.75;;
40074;SDS011;26529;51.530;11.754;2023-05-10T11:54:37;6.05;;;4.45;;
40074;SDS011;26529;51.530;11.754;2023-05-10T11:57:03;8.90;;;4.35;;
40074;SDS011;26529;51.530;11.754;2023-05-10T11:59:29;7.90;;;3.97;;
40074;SDS011;26529;51.530;11.754;2023-05-10T12:01:54;10.00;;;4.13;;
40074;SDS011;26529;51.530;11.754;2023-05-10T12:04:20;6.57;;;3.92;;
40074;SDS011;26529;51.530;11.754;2023-05-10T12:06:46;6.05;;;4.25;;
40074;SDS011;26529;51.530;11.754;2023-05-10T12:09:12;8.68;;;3.95;;
40074;SDS011;26529;51.530;11.754;2023-05-10T12:11:38;9.23;;;3.95;;
40074;SDS011;26529;51.530;11.754;2023-05-10T12:14:05;6.68;;;3.88;;
40074;SDS011;26529;51.530;11.754;2023-05-10T12:16:31;6.10;;;4.00;;
40074;SDS011;26529;51.530;11.754;2023-05-10T12:18:57;4.78;;;3.75;;
40074;SDS011;26529;51.530;11.754;2023-05-10T12:21:24;6.60;;;3.92;;
40074;SDS011;26529;51.530;11.754;2023-05-10T12:23:50;6.05;;;3.75;;
40074;SDS011;26529;51.530;11.754;2023-05-10T12:26:18;5.57;;;3.45;;
40074;SDS011;26529;51.530;11.754;2023-05-10T12:28:46;6.82;;;3.83;;
40074;SDS011;26529;51.530;11.754;2023-05-10T12:31:12;5.55;;;3.38;;
40074;SDS011;26529;51.530;11.754;2023-05-10T12:33:38;6.93;;;3.88;;
40074;SDS011;26529;51.530;11.754;2023-05-10T12:36:08;6.55;;;4.15;;
40074;SDS011;26529;51.530;11.754;2023-05-10T12:38:35;7.53;;;3.95;;
40074;SDS011;26529;51.530;11.754;2023-05-10T12:41:08;5.78;;;3.90;;
40074;SDS011;26529;51.530;11.754;2023-05-10T12:43:39;7.07;;;4.25;;
40074;SDS011;26529;51.530;11.754;2023-05-10T12:46:09;5.32;;;3.63;;
40074;SDS011;26529;51.530;11.754;2023-05-10T12:48:36;6.75;;;3.38;;
40074;SDS011;26529;51.530;11.754;2023-05-10T12:51:03;4.57;;;3.28;;
40074;SDS011;26529;51.530;11.754;2023-05-10T12:53:30;7.20;;;4.07;;
40074;SDS011;26529;51.530;11.754;2023-05-10T12:55:56;6.28;;;4.32;;
40074;SDS011;26529;51.530;11.754;2023-05-10T12:58:21;5.90;;;3.72;;
40074;SDS011;26529;51.530;11.754;2023-05-10T13:00:47;4.28;;;3.58;;
40074;SDS011;26529;51.530;11.754;2023-05-10T13:03:13;5.10;;;3.33;;
40074;SDS011;26529;51.530;11.754;2023-05-10T13:05:38;6.38;;;3.42;;
40074;SDS011;26529;51.530;11.754;2023-05-10T13:08:04;8.13;;;4.07;;
40074;SDS011;26529;51.530;11.754;2023-05-10T13:10:30;7.97;;;3.58;;
40074;SDS011;26529;51.530;11.754;2023-05-10T13:12:57;4.78;;;3.38;;
40074;SDS011;26529;51.530;11.754;2023-05-10T13:15:23;6.65;;;3.35;;
40074;SDS011;26529;51.530;11.754;2023-05-10T13:17:48;6.10;;;3.17;;
40074;SDS011;26529;51.530;11.754;2023-05-10T13:20:14;5.82;;;3.67;;
40074;SDS011;26529;51.530;11.754;2023-05-10T13:22:41;6.32;;;3.40;;
40074;SDS011;26529;51.530;11.754;2023-05-10T13:25:07;8.80;;;3.42;;
40074;SDS011;26529;51.530;11.754;2023-05-10T13:27:33;4.95;;;2.97;;
40074;SDS011;26529;51.530;11.754;2023-05-10T13:29:58;5.57;;;2.92;;
40074;SDS011;26529;51.530;11.754;2023-05-10T13:32:24;6.07;;;2.80;;
40074;SDS011;26529;51.530;11.754;2023-05-10T13:34:51;7.05;;;3.30;;
40074;SDS011;26529;51.530;11.754;2023-05-10T13:37:16;7.07;;;3.45;;
40074;SDS011;26529;51.530;11.754;2023-05-10T13:39:42;5.63;;;3.03;;
40074;SDS011;26529;51.530;11.754;2023-05-10T13:42:07;7.53;;;3.35;;
40074;SDS011;26529;51.530;11.754;2023-05-10T13:44:33;7.30;;;3.28;;
40074;SDS011;26529;51.530;11.754;2023-05-10T13:46:58;5.40;;;3.42;;
40074;SDS011;26529;51.530;11.754;2023-05-10T13:49:24;6.45;;;3.58;;
40074;SDS011;26529;51.530;11.754;2023-05-10T13:51:50;6.07;;;3.10;;
40074;SDS011;26529;51.530;11.754;2023-05-10T13:54:16;8.75;;;3.97;;
40074;SDS011;26529;51.530;11.754;2023-05-10T13:56:44;6.40;;;3.08;;
40074;SDS011;26529;51.530;11.754;2023-05-10T13:59:10;5.78;;;3.30;;
40074;SDS011;26529;51.530;11.754;2023-05-10T14:01:35;4.75;;;2.95;;
40074;SDS011;26529;51.530;11.754;2023-05-10T14:04:01;5.00;;;3.70;;
40074;SDS011;26529;51.530;11.754;2023-05-10T14:06:27;5.22;;;3.20;;
40074;SDS011;26529;51.530;11.754;2023-05-10T14:08:52;6.45;;;3.03;;
40074;SDS011;26529;51.530;11.754;2023-05-10T14:11:19;6.75;;;3.42;;
40074;SDS011;26529;51.530;11.754;2023-05-10T14:13:45;6.50;;;2.97;;
40074;SDS011;26529;51.530;11.754;2023-05-10T14:16:10;4.70;;;2.95;;
40074;SDS011;26529;51.530;11.754;2023-05-10T14:18:36;4.75;;;2.60;;
40074;SDS011;26529;51.530;11.754;2023-05-10T14:21:02;4.65;;;2.90;;
40074;SDS011;26529;51.530;11.754;2023-05-10T14:23:28;4.38;;;3.30;;
40074;SDS011;26529;51.530;11.754;2023-05-10T14:25:54;4.53;;;2.80;;
40074;SDS011;26529;51.530;11.754;2023-05-10T14:28:19;6.43;;;3.20;;
40074;SDS011;26529;51.530;11.754;2023-05-10T14:30:46;8.45;;;2.90;;
40074;SDS011;26529;51.530;11.754;2023-05-10T14:33:12;4.63;;;3.10;;
40074;SDS011;26529;51.530;11.754;2023-05-10T14:35:37;4.78;;;3.20;;
40074;SDS011;26529;51.530;11.754;2023-05-10T14:38:03;7.25;;;3.45;;
40074;SDS011;26529;51.530;11.754;2023-05-10T14:40:29;6.15;;;3.17;;
40074;SDS011;26529;51.530;11.754;2023-05-10T14:42:54;5.35;;;3.08;;
40074;SDS011;26529;51.530;11.754;2023-05-10T14:45:21;7.25;;;3.15;;
40074;SDS011;26529;51.530;11.754;2023-05-10T14:47:47;4.82;;;3.00;;
40074;SDS011;26529;51.530;11.754;2023-05-10T14:50:13;8.48;;;3.85;;
40074;SDS011;26529;51.530;11.754;2023-05-10T14:52:38;4.95;;;3.30;;
40074;SDS011;26529;51.530;11.754;2023-05-10T14:55:04;6.43;;;3.35;;
40074;SDS011;26529;51.530;11.754;2023-05-10T14:57:30;6.22;;;3.00;;
40074;SDS011;26529;51.530;11.754;2023-05-10T14:59:56;5.00;;;2.67;;